createdAt,value
2017-12-31T00:00:06.412Z,99965.64
2017-12-31T00:02:34.682Z,99977.77
2017-12-31T00:05:06.181Z,99970.95
2017-12-31T00:07:34.455Z,99958.67
2017-12-31T00:10:06.125Z,99965.64
2017-12-31T00:12:34.411Z,99977.98
2017-12-31T00:15:08.480Z,99968.66
2017-12-31T00:17:36.776Z,99973.41
2017-12-31T00:20:06.792Z,99981.72
2017-12-31T00:22:35.536Z,99985.21
2017-12-31T00:25:07.417Z,99990.11
2017-12-31T00:27:35.721Z,99987.03
2017-12-31T00:30:08.229Z,99990.70
2017-12-31T00:32:36.535Z,99998.17
2017-12-31T00:35:07.882Z,100000.83
2017-12-31T00:37:36.168Z,99996.81
2017-12-31T00:40:07.372Z,99992.23
2017-12-31T00:42:35.641Z,99989.07
2017-12-31T00:45:06.966Z,99986.58
2017-12-31T00:47:35.251Z,99991.41
2017-12-31T00:50:06.508Z,99987.08
2017-12-31T00:52:35.346Z,99986.48
2017-12-31T00:55:07.284Z,99979.97
2017-12-31T00:57:36.080Z,99986.33
2017-12-31T01:00:07.908Z,99986.98
2017-12-31T01:02:37.379Z,99985.75
2017-12-31T01:05:06.375Z,99989.58
2017-12-31T01:07:34.652Z,99983.45
2017-12-31T01:10:06.301Z,99984.89
2017-12-31T01:12:34.577Z,99975.06
2017-12-31T01:15:07.971Z,99987.78
2017-12-31T01:17:36.430Z,99983.27
2017-12-31T01:20:06.241Z,99976.06
2017-12-31T01:22:34.545Z,99984.26
2017-12-31T01:25:06.546Z,99981.69
2017-12-31T01:27:34.813Z,99986.84
2017-12-31T01:30:06.284Z,99983.88
2017-12-31T01:32:34.552Z,99995.18
2017-12-31T01:35:06.584Z,99989.23
2017-12-31T01:37:35.380Z,99988.66
2017-12-31T01:40:06.580Z,99998.98
2017-12-31T01:42:35.048Z,99998.05
2017-12-31T01:45:06.338Z,99991.46
2017-12-31T01:47:34.615Z,99992.36
2017-12-31T01:50:09.847Z,100011.14
2017-12-31T01:52:38.131Z,99973.48
2017-12-31T01:55:07.231Z,99962.98
2017-12-31T01:57:35.508Z,99984.13
2017-12-31T02:00:07.212Z,100014.47
2017-12-31T02:02:35.816Z,99972.70
2017-12-31T02:05:07.827Z,99958.89
2017-12-31T02:07:36.095Z,100016.48
2017-12-31T02:10:08.231Z,99943.28
2017-12-31T02:12:36.511Z,99939.16
2017-12-31T02:15:06.348Z,99935.80
2017-12-31T02:17:34.866Z,99934.20
2017-12-31T02:20:06.138Z,99953.75
2017-12-31T02:22:34.412Z,99948.92
2017-12-31T02:25:09.307Z,99930.70
2017-12-31T02:27:37.573Z,99930.23
2017-12-31T02:30:06.997Z,99929.42
2017-12-31T02:32:35.254Z,99917.63
2017-12-31T02:35:07.248Z,99927.00
2017-12-31T02:37:35.540Z,99918.57
2017-12-31T02:40:07.680Z,99914.80
2017-12-31T02:42:35.946Z,99916.00
2017-12-31T02:45:07.304Z,99918.31
2017-12-31T02:47:35.673Z,99914.63
2017-12-31T02:50:06.404Z,99911.16
2017-12-31T02:52:34.781Z,99900.15
2017-12-31T02:55:09.800Z,99902.47
2017-12-31T02:57:38.078Z,99907.33
2017-12-31T03:00:06.346Z,99907.02
2017-12-31T03:02:34.628Z,99902.13
2017-12-31T03:05:06.008Z,99906.10
2017-12-31T03:07:34.296Z,99904.73
2017-12-31T03:10:09.724Z,99907.42
2017-12-31T03:12:38.007Z,99909.37
2017-12-31T03:15:06.708Z,99896.31
2017-12-31T03:17:34.996Z,99896.93
2017-12-31T03:20:06.606Z,99897.34
2017-12-31T03:22:34.885Z,99895.73
2017-12-31T03:25:10.124Z,99889.88
2017-12-31T03:27:38.415Z,99884.33
2017-12-31T03:30:06.676Z,99884.28
2017-12-31T03:32:34.988Z,99874.55
2017-12-31T03:35:06.339Z,99872.14
2017-12-31T03:37:34.622Z,99860.02
2017-12-31T03:40:06.199Z,99869.84
2017-12-31T03:42:34.484Z,99861.51
2017-12-31T03:45:06.164Z,99863.08
2017-12-31T03:47:34.980Z,99863.69
2017-12-31T03:50:07.082Z,99852.66
2017-12-31T03:52:35.345Z,99858.66
2017-12-31T03:55:06.636Z,99856.35
2017-12-31T03:57:34.903Z,99858.61
2017-12-31T04:00:09.909Z,99855.36
2017-12-31T04:02:38.424Z,99858.02
2017-12-31T04:05:06.699Z,99864.77
2017-12-31T04:07:34.970Z,99865.84
2017-12-31T04:10:08.032Z,99870.41
2017-12-31T04:12:36.437Z,99875.14
2017-12-31T04:15:09.648Z,99878.47
2017-12-31T04:17:37.904Z,99875.97
2017-12-31T04:20:07.288Z,99882.42
2017-12-31T04:22:35.795Z,99882.03
2017-12-31T04:25:06.487Z,99884.83
2017-12-31T04:27:34.774Z,99874.22
2017-12-31T04:30:06.300Z,99872.86
2017-12-31T04:32:34.589Z,99873.67
2017-12-31T04:35:05.861Z,99874.23
2017-12-31T04:37:34.152Z,99875.93
2017-12-31T04:40:06.305Z,99881.41
2017-12-31T04:42:34.913Z,99879.14
2017-12-31T04:45:10.093Z,99883.17
2017-12-31T04:47:38.373Z,99885.25
2017-12-31T04:50:07.393Z,99694.06
2017-12-31T04:52:35.829Z,99883.14
2017-12-31T04:55:07.421Z,99886.91
2017-12-31T04:57:35.692Z,99892.03
2017-12-31T05:00:07.029Z,99891.12
2017-12-31T05:02:35.304Z,99893.09
2017-12-31T05:05:06.619Z,99876.75
2017-12-31T05:07:34.934Z,99894.17
2017-12-31T05:10:05.548Z,99870.39
2017-12-31T05:12:33.820Z,99875.81
2017-12-31T05:15:05.825Z,99889.78
2017-12-31T05:17:34.383Z,99889.36
2017-12-31T05:20:05.556Z,99897.66
2017-12-31T05:22:34.165Z,99898.44
2017-12-31T05:25:06.741Z,99899.61
2017-12-31T05:27:35.400Z,99893.41
2017-12-31T05:30:06.592Z,99883.14
2017-12-31T05:32:35.094Z,99881.23
2017-12-31T05:35:07.182Z,99886.34
2017-12-31T05:37:35.864Z,99885.59
2017-12-31T05:40:05.656Z,99890.02
2017-12-31T05:42:33.960Z,99885.70
2017-12-31T05:45:05.365Z,99895.92
2017-12-31T05:47:33.695Z,99902.46
2017-12-31T05:50:04.927Z,99903.25
2017-12-31T05:52:33.203Z,99910.92
2017-12-31T05:55:07.820Z,99910.70
2017-12-31T05:57:36.501Z,99914.39
2017-12-31T06:00:06.280Z,99918.80
2017-12-31T06:02:34.568Z,99922.65
2017-12-31T06:05:06.667Z,99920.61
2017-12-31T06:07:34.957Z,99918.53
2017-12-31T06:10:06.753Z,99925.47
2017-12-31T06:12:35.045Z,99922.30
2017-12-31T06:15:07.164Z,99923.11
2017-12-31T06:17:35.450Z,99920.20
2017-12-31T06:20:07.455Z,99915.08
2017-12-31T06:22:36.384Z,99914.06
2017-12-31T06:25:06.292Z,99908.95
2017-12-31T06:27:34.928Z,99917.34
2017-12-31T06:30:07.146Z,99922.91
2017-12-31T06:32:35.711Z,99917.59
2017-12-31T06:35:05.605Z,99912.69
2017-12-31T06:37:33.862Z,99919.27
2017-12-31T06:40:07.777Z,99916.45
2017-12-31T06:42:36.042Z,99919.19
2017-12-31T06:45:05.854Z,99912.53
2017-12-31T06:47:34.129Z,99920.95
2017-12-31T06:50:05.722Z,99915.46
2017-12-31T06:52:34.126Z,99909.22
2017-12-31T06:55:06.294Z,99912.42
2017-12-31T06:57:34.573Z,99915.15
2017-12-31T07:00:05.780Z,99908.76
2017-12-31T07:02:34.594Z,99911.62
2017-12-31T07:05:05.621Z,99908.37
2017-12-31T07:07:33.896Z,99907.73
2017-12-31T07:10:05.354Z,99897.84
2017-12-31T07:12:33.640Z,99896.82
2017-12-31T07:15:05.266Z,99897.94
2017-12-31T07:17:33.819Z,99897.88
2017-12-31T07:20:06.496Z,99895.39
2017-12-31T07:22:34.772Z,99898.10
2017-12-31T07:25:05.669Z,99894.86
2017-12-31T07:27:33.933Z,99895.71
2017-12-31T07:30:05.456Z,99891.23
2017-12-31T07:32:33.716Z,99892.34
2017-12-31T07:35:08.730Z,99883.08
2017-12-31T07:37:37.020Z,99878.41
2017-12-31T07:40:06.407Z,99874.84
2017-12-31T07:42:34.933Z,99863.87
2017-12-31T07:45:05.664Z,99874.84
2017-12-31T07:47:33.959Z,99876.11
2017-12-31T07:50:05.425Z,99881.81
2017-12-31T07:52:34.308Z,99888.26
2017-12-31T07:55:06.352Z,99891.08
2017-12-31T07:57:34.627Z,99888.31
2017-12-31T08:00:05.696Z,99893.27
2017-12-31T08:02:33.984Z,99892.45
2017-12-31T08:05:05.497Z,99892.08
2017-12-31T08:07:33.756Z,99898.95
2017-12-31T08:10:08.822Z,99889.54
2017-12-31T08:12:37.096Z,99892.40
2017-12-31T08:15:06.100Z,99885.02
2017-12-31T08:17:34.379Z,99869.94
2017-12-31T08:20:06.371Z,99867.59
2017-12-31T08:22:34.642Z,99873.72
2017-12-31T08:25:06.708Z,99895.27
2017-12-31T08:27:34.941Z,99903.31
2017-12-31T08:30:06.334Z,99912.95
2017-12-31T08:32:35.588Z,99924.94
2017-12-31T08:35:06.795Z,99916.63
2017-12-31T08:37:35.260Z,99920.98
2017-12-31T08:40:07.149Z,99926.48
2017-12-31T08:42:35.435Z,99932.65
2017-12-31T08:45:06.744Z,99928.66
2017-12-31T08:47:35.052Z,99927.43
2017-12-31T08:50:07.208Z,99922.48
2017-12-31T08:52:35.499Z,99920.14
2017-12-31T08:55:06.681Z,99905.81
2017-12-31T08:57:34.958Z,99909.91
2017-12-31T09:00:06.405Z,99898.27
2017-12-31T09:02:35.424Z,99901.56
2017-12-31T09:05:07.736Z,99883.39
2017-12-31T09:07:36.015Z,99886.71
2017-12-31T09:10:05.809Z,99895.56
2017-12-31T09:12:34.082Z,99884.10
2017-12-31T09:15:06.220Z,99895.87
2017-12-31T09:17:34.495Z,99905.17
2017-12-31T09:20:05.929Z,99907.36
2017-12-31T09:22:34.194Z,99903.80
2017-12-31T09:25:07.553Z,99916.13
2017-12-31T09:27:36.073Z,99905.19
2017-12-31T09:30:07.704Z,99906.95
2017-12-31T09:32:36.016Z,99901.95
2017-12-31T09:35:05.821Z,99896.17
2017-12-31T09:37:34.104Z,99896.23
2017-12-31T09:40:05.791Z,99895.33
2017-12-31T09:42:34.085Z,99886.65
2017-12-31T09:45:09.262Z,99888.30
2017-12-31T09:47:37.556Z,99909.83
2017-12-31T09:50:05.879Z,99908.27
2017-12-31T09:52:34.451Z,99912.97
2017-12-31T09:55:07.324Z,99906.26
2017-12-31T09:57:35.665Z,99923.31
2017-12-31T10:00:06.960Z,99913.00
2017-12-31T10:02:35.396Z,99921.58
2017-12-31T10:05:07.543Z,99912.63
2017-12-31T10:07:35.827Z,99910.55
2017-12-31T10:10:07.033Z,99910.02
2017-12-31T10:12:35.308Z,99900.97
2017-12-31T10:15:07.636Z,99898.30
2017-12-31T10:17:36.051Z,99896.00
2017-12-31T10:20:05.918Z,99897.44
2017-12-31T10:22:34.183Z,99885.30
2017-12-31T10:25:08.111Z,99891.54
2017-12-31T10:27:36.369Z,99878.17
2017-12-31T10:30:06.068Z,99867.67
2017-12-31T10:32:34.338Z,99868.23
2017-12-31T10:35:05.794Z,99889.09
2017-12-31T10:37:34.062Z,99864.92
2017-12-31T10:40:05.368Z,99873.50
2017-12-31T10:42:33.640Z,99880.52
2017-12-31T10:45:08.992Z,99882.39
2017-12-31T10:47:37.285Z,99887.62
2017-12-31T10:50:06.764Z,99886.91
2017-12-31T10:52:35.321Z,99881.06
2017-12-31T10:55:07.415Z,99877.40
2017-12-31T10:57:35.685Z,99868.92
2017-12-31T11:00:07.813Z,99862.23
2017-12-31T11:02:36.089Z,99861.53
2017-12-31T11:05:05.932Z,99847.38
2017-12-31T11:07:34.485Z,99844.55
2017-12-31T11:10:06.034Z,99861.73
2017-12-31T11:12:34.306Z,99860.30
2017-12-31T11:15:09.569Z,99863.54
2017-12-31T11:17:37.874Z,99861.63
2017-12-31T11:20:06.145Z,99852.72
2017-12-31T11:22:34.681Z,99833.66
2017-12-31T11:25:06.235Z,99831.84
2017-12-31T11:27:34.736Z,99838.55
2017-12-31T11:30:06.970Z,99818.28
2017-12-31T11:32:35.380Z,99822.69
2017-12-31T11:35:05.985Z,99808.97
2017-12-31T11:37:34.252Z,99817.02
2017-12-31T11:40:05.833Z,99826.84
2017-12-31T11:42:34.101Z,99818.89
2017-12-31T11:45:05.539Z,99827.48
2017-12-31T11:47:33.805Z,99829.11
2017-12-31T11:50:05.973Z,99829.40
2017-12-31T11:52:34.258Z,99814.62
2017-12-31T11:55:05.968Z,99822.14
2017-12-31T11:57:34.236Z,99817.73
2017-12-31T12:00:05.854Z,99814.79
2017-12-31T12:02:34.171Z,99809.11
2017-12-31T12:05:05.843Z,99810.83
2017-12-31T12:07:34.108Z,99809.13
2017-12-31T12:10:05.521Z,99812.86
2017-12-31T12:12:33.982Z,99801.47
2017-12-31T12:15:07.319Z,99801.16
2017-12-31T12:17:35.596Z,99790.03
2017-12-31T12:20:07.772Z,99784.48
2017-12-31T12:22:36.081Z,99776.17
2017-12-31T12:25:06.887Z,99767.10
2017-12-31T12:27:35.176Z,99762.69
2017-12-31T12:30:06.059Z,99754.86
2017-12-31T12:32:34.344Z,99745.64
2017-12-31T12:35:05.988Z,99749.81
2017-12-31T12:37:34.281Z,99740.58
2017-12-31T12:40:06.393Z,99742.73
2017-12-31T12:42:35.731Z,99748.70
2017-12-31T12:45:07.898Z,99740.24
2017-12-31T12:47:36.163Z,99723.91
2017-12-31T12:50:06.351Z,99729.67
2017-12-31T12:52:35.188Z,99716.53
2017-12-31T12:55:07.104Z,99719.53
2017-12-31T12:57:35.389Z,99717.23
2017-12-31T13:00:06.842Z,99701.43
2017-12-31T13:02:35.582Z,99701.00
2017-12-31T13:05:08.555Z,99698.55
2017-12-31T13:07:36.820Z,99696.83
2017-12-31T13:10:06.864Z,99684.97
2017-12-31T13:12:35.128Z,99673.23
2017-12-31T13:15:07.300Z,99677.12
2017-12-31T13:17:35.604Z,99669.73
2017-12-31T13:20:07.744Z,99659.50
2017-12-31T13:22:36.019Z,99658.70
2017-12-31T13:25:07.839Z,99656.63
2017-12-31T13:27:40.352Z,99649.30
2017-12-31T13:30:08.652Z,99634.16
2017-12-31T13:32:36.940Z,99641.75
2017-12-31T13:35:06.448Z,99630.36
2017-12-31T13:37:34.902Z,99619.86
2017-12-31T13:40:07.049Z,99636.58
2017-12-31T13:42:35.312Z,99630.55
2017-12-31T13:45:06.230Z,99621.58
2017-12-31T13:47:34.496Z,99609.18
2017-12-31T13:50:06.260Z,99596.70
2017-12-31T13:52:34.873Z,99604.75
2017-12-31T13:55:06.788Z,99603.95
2017-12-31T13:57:35.045Z,99597.15
2017-12-31T14:00:06.461Z,99571.33
2017-12-31T14:02:34.733Z,99584.70
2017-12-31T14:05:08.665Z,99584.57
2017-12-31T14:07:36.961Z,99578.67
2017-12-31T14:10:10.773Z,99585.58
2017-12-31T14:12:39.073Z,99598.02
2017-12-31T14:15:07.351Z,99595.19
2017-12-31T14:17:35.838Z,99580.78
2017-12-31T14:20:08.492Z,99584.73
2017-12-31T14:22:36.805Z,99573.61
2017-12-31T14:25:08.024Z,99572.81
2017-12-31T14:27:36.351Z,99565.41
2017-12-31T14:30:07.556Z,99570.92
2017-12-31T14:32:35.853Z,99578.64
2017-12-31T14:35:07.040Z,99561.48
2017-12-31T14:37:35.316Z,99572.23
2017-12-31T14:40:07.444Z,99572.16
2017-12-31T14:42:35.738Z,99563.77
2017-12-31T14:45:06.938Z,99565.59
2017-12-31T14:47:35.249Z,99558.37
2017-12-31T14:50:07.526Z,99560.37
2017-12-31T14:52:35.749Z,99556.88
2017-12-31T14:55:07.856Z,99551.84
2017-12-31T14:57:36.125Z,99550.80
2017-12-31T15:00:06.870Z,99540.58
2017-12-31T15:02:35.150Z,99533.47
2017-12-31T15:05:06.467Z,99522.15
2017-12-31T15:07:34.729Z,99529.10
2017-12-31T15:10:06.398Z,99534.64
2017-12-31T15:12:34.685Z,99535.40
2017-12-31T15:15:06.053Z,99526.30
2017-12-31T15:17:34.376Z,99529.98
2017-12-31T15:20:09.418Z,99531.97
2017-12-31T15:22:37.664Z,99535.55
2017-12-31T15:25:06.265Z,99529.17
2017-12-31T15:27:34.677Z,99540.21
2017-12-31T15:30:09.687Z,99527.48
2017-12-31T15:32:37.997Z,99539.61
2017-12-31T15:35:06.273Z,99530.14
2017-12-31T15:37:34.572Z,99530.64
2017-12-31T15:40:06.061Z,99536.81
2017-12-31T15:42:34.572Z,99526.93
2017-12-31T15:45:09.707Z,99517.28
2017-12-31T15:47:37.981Z,99513.91
2017-12-31T15:50:06.499Z,99504.38
2017-12-31T15:52:34.779Z,99498.20
2017-12-31T15:55:09.839Z,99493.61
2017-12-31T15:57:38.754Z,99497.58
2017-12-31T16:00:06.999Z,99497.78
2017-12-31T16:02:35.284Z,99509.50
2017-12-31T16:05:06.687Z,99500.69
2017-12-31T16:07:34.966Z,99501.27
2017-12-31T16:10:07.063Z,99488.88
2017-12-31T16:12:35.592Z,99490.94
2017-12-31T16:15:06.821Z,99500.00
2017-12-31T16:17:35.109Z,99493.23
2017-12-31T16:20:06.533Z,99478.62
2017-12-31T16:22:34.812Z,99490.23
2017-12-31T16:25:06.607Z,99470.47
2017-12-31T16:27:35.876Z,99481.01
2017-12-31T16:30:07.450Z,99473.06
2017-12-31T16:32:35.864Z,99469.15
2017-12-31T16:35:08.463Z,99464.31
2017-12-31T16:37:36.754Z,99465.05
2017-12-31T16:40:06.288Z,99461.63
2017-12-31T16:42:34.572Z,99463.35
2017-12-31T16:45:05.923Z,99465.78
2017-12-31T16:47:34.276Z,99461.49
2017-12-31T16:50:09.280Z,99453.86
2017-12-31T16:52:37.573Z,99449.58
2017-12-31T16:55:08.182Z,99435.55
2017-12-31T16:57:36.442Z,99426.59
2017-12-31T17:00:06.587Z,99419.56
2017-12-31T17:02:34.909Z,99406.37
2017-12-31T17:05:08.968Z,99409.45
2017-12-31T17:07:37.244Z,99406.66
2017-12-31T17:10:06.968Z,99404.64
2017-12-31T17:12:35.371Z,99384.18
2017-12-31T17:15:06.780Z,99385.80
2017-12-31T17:17:35.040Z,99393.06
2017-12-31T17:20:07.136Z,99374.66
2017-12-31T17:22:35.413Z,99373.75
2017-12-31T17:25:06.775Z,99362.84
2017-12-31T17:27:35.036Z,99362.17
2017-12-31T17:30:06.436Z,99365.52
2017-12-31T17:32:34.716Z,99356.20
2017-12-31T17:35:09.762Z,99350.55
2017-12-31T17:37:38.053Z,99352.96
2017-12-31T17:40:06.420Z,99349.08
2017-12-31T17:42:34.707Z,99349.97
2017-12-31T17:45:06.203Z,99341.19
2017-12-31T17:47:34.516Z,99337.28
2017-12-31T17:50:09.620Z,99318.97
2017-12-31T17:52:37.907Z,99326.09
2017-12-31T17:55:06.640Z,99314.22
2017-12-31T17:57:34.929Z,99309.23
2017-12-31T18:00:07.076Z,99320.20
2017-12-31T18:02:35.356Z,99330.38
2017-12-31T18:05:08.410Z,99314.63
2017-12-31T18:07:37.231Z,99318.55
2017-12-31T18:10:06.852Z,99310.67
2017-12-31T18:12:35.152Z,99318.09
2017-12-31T18:15:09.328Z,99328.19
2017-12-31T18:17:37.617Z,99311.27
2017-12-31T18:20:07.168Z,99309.23
2017-12-31T18:22:35.677Z,99315.15
2017-12-31T18:25:07.676Z,99307.28
2017-12-31T18:27:35.943Z,99298.84
2017-12-31T18:30:08.081Z,99281.83
2017-12-31T18:32:36.342Z,99283.66
2017-12-31T18:35:08.259Z,99273.71
2017-12-31T18:37:36.524Z,99269.39
2017-12-31T18:40:06.428Z,99266.91
2017-12-31T18:42:34.745Z,99275.64
2017-12-31T18:45:06.448Z,99269.89
2017-12-31T18:47:35.320Z,99280.47
2017-12-31T18:50:06.513Z,99268.14
2017-12-31T18:52:34.812Z,99274.44
2017-12-31T18:55:09.960Z,99272.86
2017-12-31T18:57:38.272Z,99259.70
2017-12-31T19:00:06.549Z,99258.72
2017-12-31T19:02:34.853Z,99258.38
2017-12-31T19:05:06.383Z,99258.91
2017-12-31T19:07:35.183Z,99256.73
2017-12-31T19:10:07.236Z,99255.09
2017-12-31T19:12:35.705Z,99269.78
2017-12-31T19:15:07.616Z,99266.91
2017-12-31T19:17:35.899Z,99268.34
2017-12-31T19:20:06.450Z,99279.09
2017-12-31T19:22:34.757Z,99289.08
2017-12-31T19:25:08.010Z,99272.34
2017-12-31T19:27:36.274Z,99281.46
2017-12-31T19:30:07.704Z,99279.30
2017-12-31T19:32:36.200Z,99274.12
2017-12-31T19:35:08.188Z,99268.92
2017-12-31T19:37:36.883Z,99259.82
2017-12-31T19:40:06.767Z,99273.14
2017-12-31T19:42:35.041Z,99269.64
2017-12-31T19:45:07.181Z,99279.16
2017-12-31T19:47:35.668Z,99269.47
2017-12-31T19:50:05.815Z,99265.89
2017-12-31T19:52:34.112Z,99261.74
2017-12-31T19:55:06.204Z,99267.95
2017-12-31T19:57:35.036Z,99266.83
2017-12-31T20:00:06.676Z,99263.23
2017-12-31T20:02:34.950Z,99255.41
2017-12-31T20:05:07.073Z,99251.31
2017-12-31T20:07:35.442Z,99248.20
2017-12-31T20:10:06.636Z,99264.47
2017-12-31T20:12:34.924Z,99259.23
2017-12-31T20:15:06.140Z,99245.37
2017-12-31T20:17:34.480Z,99257.34
2017-12-31T20:20:06.952Z,99247.16
2017-12-31T20:22:35.216Z,99261.54
2017-12-31T20:25:06.827Z,99255.91
2017-12-31T20:27:35.119Z,99265.35
2017-12-31T20:30:07.532Z,99268.41
2017-12-31T20:32:35.816Z,99281.62
2017-12-31T20:35:05.718Z,99282.34
2017-12-31T20:37:34.098Z,99277.80
2017-12-31T20:40:09.085Z,99290.87
2017-12-31T20:42:37.684Z,99287.22
2017-12-31T20:45:06.100Z,99293.33
2017-12-31T20:47:34.372Z,99285.69
2017-12-31T20:50:05.569Z,99292.59
2017-12-31T20:52:33.840Z,99311.73
2017-12-31T20:55:05.236Z,99344.11
2017-12-31T20:57:33.517Z,99347.83
2017-12-31T21:00:08.576Z,99348.30
2017-12-31T21:02:36.848Z,99356.69
2017-12-31T21:05:06.426Z,99353.91
2017-12-31T21:07:34.717Z,99355.70
2017-12-31T21:10:06.849Z,99354.20
2017-12-31T21:12:35.162Z,99363.64
2017-12-31T21:15:06.864Z,99360.63
2017-12-31T21:17:35.147Z,99357.36
2017-12-31T21:20:07.504Z,99357.62
2017-12-31T21:22:36.069Z,99353.55
2017-12-31T21:25:05.838Z,99362.59
2017-12-31T21:27:34.361Z,99364.12
2017-12-31T21:30:05.558Z,99357.75
2017-12-31T21:32:33.834Z,99361.41
2017-12-31T21:35:07.828Z,99367.78
2017-12-31T21:37:36.104Z,99361.31
2017-12-31T21:40:06.024Z,99359.66
2017-12-31T21:42:34.409Z,99372.13
2017-12-31T21:45:06.324Z,99373.80
2017-12-31T21:47:34.613Z,99362.34
2017-12-31T21:50:05.636Z,99354.80
2017-12-31T21:52:34.056Z,99375.81
2017-12-31T21:55:09.219Z,99366.03
2017-12-31T21:57:37.509Z,99380.78
2017-12-31T22:00:05.805Z,99374.72
2017-12-31T22:02:34.324Z,99386.81
2017-12-31T22:05:05.687Z,99384.48
2017-12-31T22:07:33.952Z,99385.92
2017-12-31T22:10:05.482Z,99384.70
2017-12-31T22:12:33.868Z,99386.80
2017-12-31T22:15:05.095Z,99387.59
2017-12-31T22:17:33.401Z,99392.03
2017-12-31T22:20:05.111Z,99390.27
2017-12-31T22:22:34.357Z,99386.65
2017-12-31T22:25:06.356Z,99386.14
2017-12-31T22:27:34.647Z,99388.53
2017-12-31T22:30:05.734Z,99383.05
2017-12-31T22:32:33.997Z,99388.75
2017-12-31T22:35:05.628Z,99389.80
2017-12-31T22:37:33.951Z,99397.52
2017-12-31T22:40:09.221Z,99402.27
2017-12-31T22:42:37.508Z,99403.64
2017-12-31T22:45:06.128Z,99410.11
2017-12-31T22:47:34.424Z,99411.98
2017-12-31T22:50:05.708Z,99420.52
2017-12-31T22:52:33.980Z,99411.28
2017-12-31T22:55:07.797Z,99404.06
2017-12-31T22:57:36.199Z,99411.06
2017-12-31T23:00:05.956Z,99403.95
2017-12-31T23:02:34.285Z,99401.56
2017-12-31T23:05:05.709Z,99415.41
2017-12-31T23:07:34.007Z,99421.97
2017-12-31T23:10:07.235Z,99417.72
2017-12-31T23:12:35.536Z,99415.79
2017-12-31T23:15:05.925Z,99416.25
2017-12-31T23:17:34.211Z,99412.36
2017-12-31T23:20:10.312Z,99430.24
2017-12-31T23:22:38.664Z,99427.11
2017-12-31T23:25:06.950Z,99421.08
2017-12-31T23:27:35.273Z,99431.53
2017-12-31T23:30:06.639Z,99438.22
2017-12-31T23:32:34.936Z,99429.03
2017-12-31T23:35:08.963Z,99435.84
2017-12-31T23:37:37.216Z,99419.76
2017-12-31T23:40:06.314Z,99444.06
2017-12-31T23:42:34.617Z,99446.81
2017-12-31T23:45:06.600Z,99447.94
2017-12-31T23:47:35.111Z,99456.91
2017-12-31T23:50:07.202Z,99451.70
2017-12-31T23:52:35.800Z,99433.00
2017-12-31T23:55:07.597Z,99443.09
2017-12-31T23:57:35.896Z,99460.28
